createdAt,value
2018-03-07T00:02:24.475Z,109.07
2018-03-07T00:04:55.312Z,109.33
2018-03-07T00:07:26.156Z,113.37
2018-03-07T00:09:56.980Z,113.70
2018-03-07T00:12:27.759Z,110.90
2018-03-07T00:14:58.578Z,113.63
2018-03-07T00:17:29.406Z,120.73
2018-03-07T00:20:00.225Z,124.10
2018-03-07T00:22:31.065Z,105.07
2018-03-07T00:25:01.938Z,123.17
2018-03-07T00:27:32.776Z,107.53
2018-03-07T00:30:03.611Z,120.23
2018-03-07T00:32:34.449Z,113.43
2018-03-07T00:35:05.347Z,107.77
2018-03-07T00:37:36.177Z,116.73
2018-03-07T00:40:06.990Z,125.30
2018-03-07T00:42:37.814Z,140.40
2018-03-07T00:45:08.658Z,116.50
2018-03-07T00:47:39.474Z,114.10
2018-03-07T00:50:10.312Z,118.73
2018-03-07T00:52:41.186Z,119.77
2018-03-07T00:55:12.033Z,119.10
2018-03-07T00:57:42.837Z,133.13
2018-03-07T01:00:13.664Z,125.10
2018-03-07T01:02:44.497Z,118.37
2018-03-07T01:05:15.324Z,135.20
2018-03-07T01:07:46.188Z,135.97
2018-03-07T01:10:17.022Z,121.73
2018-03-07T01:12:47.824Z,127.20
2018-03-07T01:15:18.674Z,116.67
2018-03-07T01:17:49.466Z,125.57
2018-03-07T01:20:20.311Z,107.63
2018-03-07T01:22:51.133Z,123.00
2018-03-07T01:25:21.962Z,125.30
2018-03-07T01:27:52.765Z,127.53
2018-03-07T01:30:23.602Z,128.53
2018-03-07T01:32:54.421Z,112.83
2018-03-07T01:35:25.237Z,136.17
2018-03-07T01:37:56.055Z,127.80
2018-03-07T01:40:26.885Z,135.87
2018-03-07T01:42:57.693Z,131.73
2018-03-07T01:45:28.534Z,141.50
2018-03-07T01:47:59.368Z,135.23
2018-03-07T01:50:30.209Z,121.17
2018-03-07T01:53:01.019Z,129.47
2018-03-07T01:55:31.864Z,127.97
2018-03-07T01:58:02.683Z,126.97
2018-03-07T02:00:33.532Z,138.10
2018-03-07T02:03:04.362Z,132.80
2018-03-07T02:05:35.173Z,147.50
2018-03-07T02:08:06.019Z,131.17
2018-03-07T02:10:36.848Z,145.23
2018-03-07T02:13:07.653Z,133.90
2018-03-07T02:15:38.502Z,125.40
2018-03-07T02:18:09.325Z,124.83
2018-03-07T02:20:40.140Z,135.83
2018-03-07T02:23:10.967Z,130.47
2018-03-07T02:25:41.805Z,124.57
2018-03-07T02:28:12.631Z,123.03
2018-03-07T02:30:43.478Z,121.90
2018-03-07T02:33:14.317Z,130.13
2018-03-07T02:35:45.200Z,131.17
2018-03-07T02:38:16.005Z,122.17
2018-03-07T02:40:46.799Z,128.53
2018-03-07T02:43:17.627Z,116.47
2018-03-07T02:45:48.703Z,129.70
2018-03-07T02:48:19.513Z,126.72
2018-03-07T02:50:50.326Z,121.57
2018-03-07T02:53:21.193Z,105.23
2018-03-07T02:55:52.123Z,118.00
2018-03-07T02:58:22.964Z,123.30
2018-03-07T03:00:53.813Z,109.30
2018-03-07T03:03:24.646Z,132.83
2018-03-07T03:05:55.473Z,127.50
2018-03-07T03:08:26.313Z,117.27
2018-03-07T03:10:57.397Z,126.43
2018-03-07T03:13:28.210Z,113.72
2018-03-07T03:15:59.090Z,106.23
2018-03-07T03:18:29.877Z,124.27
2018-03-07T03:21:00.712Z,128.27
2018-03-07T03:23:31.529Z,128.90
2018-03-07T03:26:02.366Z,148.37
2018-03-07T03:28:33.200Z,126.60
2018-03-07T03:31:04.521Z,149.80
2018-03-07T03:33:35.342Z,130.93
2018-03-07T03:36:06.205Z,125.97
2018-03-07T03:38:37.061Z,127.87
2018-03-07T03:41:07.896Z,136.00
2018-03-07T03:43:38.699Z,133.77
2018-03-07T03:46:09.538Z,132.10
2018-03-07T03:48:40.377Z,123.57
2018-03-07T03:51:11.241Z,127.80
2018-03-07T03:53:42.096Z,110.20
2018-03-07T03:56:12.917Z,147.23
2018-03-07T03:58:43.731Z,119.37
2018-03-07T04:01:14.569Z,119.83
2018-03-07T04:03:45.383Z,132.57
2018-03-07T04:06:16.233Z,119.97
2018-03-07T04:08:47.105Z,113.87
2018-03-07T04:11:17.985Z,116.90
2018-03-07T04:13:48.785Z,117.53
2018-03-07T04:16:19.622Z,125.20
2018-03-07T04:18:50.480Z,110.53
2018-03-07T04:21:21.314Z,111.53
2018-03-07T04:23:52.148Z,123.53
2018-03-07T04:26:22.986Z,120.53
2018-03-07T04:28:53.845Z,107.50
2018-03-07T04:31:24.664Z,106.40
2018-03-07T04:33:55.474Z,111.10
2018-03-07T04:36:26.319Z,107.90
2018-03-07T04:38:57.169Z,101.23
2018-03-07T04:41:28.018Z,103.43
2018-03-07T04:43:58.806Z,99.00
2018-03-07T04:46:29.625Z,105.37
2018-03-07T04:49:00.459Z,100.57
2018-03-07T04:51:31.285Z,102.33
2018-03-07T04:54:02.107Z,93.13
2018-03-07T04:56:32.915Z,95.00
2018-03-07T04:59:03.723Z,86.70
2018-03-07T05:01:34.546Z,106.80
2018-03-07T05:04:05.358Z,101.40
2018-03-07T05:06:36.191Z,109.47
2018-03-07T05:09:06.978Z,85.93
2018-03-07T05:11:37.801Z,94.23
2018-03-07T05:14:08.611Z,101.17
2018-03-07T05:16:39.465Z,99.13
2018-03-07T05:19:10.266Z,102.87
2018-03-07T05:21:41.108Z,96.40
2018-03-07T05:24:11.941Z,98.27
2018-03-07T05:26:42.781Z,89.37
2018-03-07T05:29:13.656Z,100.60
2018-03-07T05:31:44.494Z,92.83
2018-03-07T05:34:15.357Z,105.20
2018-03-07T05:36:46.183Z,89.13
2018-03-07T05:39:17.009Z,88.27
2018-03-07T05:41:47.835Z,91.10
2018-03-07T05:44:18.637Z,95.50
2018-03-07T05:46:49.546Z,103.30
2018-03-07T05:49:20.513Z,89.50
2018-03-07T05:51:51.314Z,96.10
2018-03-07T05:54:22.138Z,108.77
2018-03-07T05:56:52.964Z,96.53
2018-03-07T05:59:23.780Z,96.03
2018-03-07T06:01:54.589Z,74.40
2018-03-07T06:04:25.473Z,74.53
2018-03-07T06:06:56.280Z,67.23
2018-03-07T06:09:27.100Z,72.00
2018-03-07T06:11:57.983Z,62.07
2018-03-07T06:14:28.820Z,68.60
2018-03-07T06:16:59.650Z,68.43
2018-03-07T06:19:30.465Z,64.23
2018-03-07T06:22:01.261Z,67.30
2018-03-07T06:24:32.450Z,63.63
2018-03-07T06:27:03.232Z,63.47
2018-03-07T06:29:34.073Z,58.77
2018-03-07T06:32:04.898Z,60.50
2018-03-07T06:34:35.734Z,57.73
2018-03-07T06:37:06.530Z,57.10
2018-03-07T06:39:37.363Z,60.10
2018-03-07T06:42:08.194Z,55.37
2018-03-07T06:44:38.989Z,54.37
2018-03-07T06:47:09.790Z,64.20
2018-03-07T06:49:40.630Z,84.43
2018-03-07T06:52:11.398Z,67.23
2018-03-07T06:54:42.242Z,54.20
2018-03-07T06:57:13.054Z,50.00
2018-03-07T06:59:43.909Z,50.40
2018-03-07T07:02:14.733Z,50.30
2018-03-07T07:04:45.630Z,45.50
2018-03-07T07:07:16.429Z,47.17
2018-03-07T07:09:47.242Z,46.57
2018-03-07T07:12:18.053Z,45.00
2018-03-07T07:14:48.870Z,46.70
2018-03-07T07:17:19.661Z,44.17
2018-03-07T07:19:50.461Z,44.70
2018-03-07T07:22:21.262Z,43.20
2018-03-07T07:24:52.157Z,40.43
2018-03-07T07:27:23.043Z,36.63
2018-03-07T07:29:54.950Z,41.70
2018-03-07T07:32:25.808Z,45.30
2018-03-07T07:34:57.731Z,34.23
2018-03-07T07:37:28.603Z,38.92
2018-03-07T07:39:59.427Z,37.20
2018-03-07T07:42:30.222Z,31.90
2018-03-07T07:45:01.092Z,29.17
2018-03-07T07:47:31.943Z,31.80
2018-03-07T07:50:02.822Z,35.73
2018-03-07T07:52:33.661Z,30.20
2018-03-07T07:55:04.596Z,29.23
2018-03-07T07:57:35.503Z,25.87
2018-03-07T08:00:06.368Z,23.63
2018-03-07T08:02:37.206Z,24.73
2018-03-07T08:05:09.217Z,27.00
2018-03-07T08:07:40.063Z,24.77
2018-03-07T08:10:10.898Z,22.10
2018-03-07T08:12:41.767Z,22.63
2018-03-07T08:15:12.662Z,23.13
2018-03-07T08:17:43.515Z,21.37
2018-03-07T08:20:14.444Z,21.03
2018-03-07T08:22:45.291Z,25.47
2018-03-07T08:25:16.171Z,23.20
2018-03-07T08:27:47.009Z,21.97
2018-03-07T08:30:17.916Z,20.60
2018-03-07T08:32:48.827Z,22.67
2018-03-07T08:35:19.686Z,19.43
2018-03-07T08:37:50.747Z,20.73
2018-03-07T08:40:21.593Z,21.70
2018-03-07T08:42:52.426Z,24.10
2018-03-07T08:45:23.248Z,23.07
2018-03-07T08:47:54.085Z,18.90
2018-03-07T08:50:24.954Z,21.10
2018-03-07T08:52:55.751Z,21.27
2018-03-07T08:55:26.598Z,22.17
2018-03-07T08:57:57.490Z,20.90
2018-03-07T09:00:28.333Z,21.43
2018-03-07T09:02:59.172Z,18.93
2018-03-07T09:05:30.035Z,20.17
2018-03-07T09:08:00.942Z,18.20
2018-03-07T09:10:31.819Z,19.80
2018-03-07T09:13:02.675Z,16.90
2018-03-07T09:15:33.521Z,17.73
2018-03-07T09:18:04.313Z,19.30
2018-03-07T09:20:35.168Z,18.40
2018-03-07T09:23:06.037Z,19.33
2018-03-07T09:25:36.915Z,17.43
2018-03-07T09:28:07.760Z,16.30
2018-03-07T09:30:38.628Z,16.00
2018-03-07T09:33:09.440Z,18.87
2018-03-07T09:35:40.278Z,16.67
2018-03-07T09:38:11.151Z,15.70
2018-03-07T09:40:42.014Z,16.00
2018-03-07T09:43:12.860Z,17.67
2018-03-07T09:45:43.670Z,17.37
2018-03-07T09:48:14.470Z,18.53
2018-03-07T09:50:45.270Z,17.40
2018-03-07T09:53:16.105Z,16.50
2018-03-07T09:55:46.938Z,18.60
2018-03-07T09:58:17.738Z,16.67
2018-03-07T10:00:48.602Z,17.63
2018-03-07T10:03:19.417Z,15.10
2018-03-07T10:05:50.249Z,17.17
2018-03-07T10:08:21.090Z,15.43
2018-03-07T10:10:52.417Z,15.37
2018-03-07T10:13:23.232Z,15.70
2018-03-07T10:15:54.042Z,15.67
2018-03-07T10:18:24.841Z,13.10
2018-03-07T10:20:55.654Z,15.50
2018-03-07T10:23:26.445Z,12.03
2018-03-07T10:25:57.326Z,13.80
2018-03-07T10:28:28.178Z,10.83
2018-03-07T10:30:59.006Z,13.07
2018-03-07T10:33:29.864Z,10.77
2018-03-07T10:36:00.725Z,11.10
2018-03-07T10:38:31.562Z,12.87
2018-03-07T10:41:02.451Z,12.57
2018-03-07T10:43:33.302Z,10.47
2018-03-07T10:46:04.150Z,10.53
2018-03-07T10:48:34.965Z,9.30
2018-03-07T10:51:05.759Z,9.43
2018-03-07T10:53:36.584Z,10.07
2018-03-07T10:56:07.413Z,6.33
2018-03-07T10:58:38.207Z,8.10
2018-03-07T11:01:09.049Z,9.23
2018-03-07T11:03:39.920Z,8.93
2018-03-07T11:06:10.774Z,10.23
2018-03-07T11:08:41.605Z,10.07
2018-03-07T11:11:12.435Z,8.30
2018-03-07T11:13:43.306Z,8.40
2018-03-07T11:16:14.154Z,8.10
2018-03-07T11:18:44.978Z,9.57
2018-03-07T11:21:15.794Z,7.00
2018-03-07T11:23:46.617Z,9.30
2018-03-07T11:26:17.490Z,6.97
2018-03-07T11:28:48.376Z,6.97
2018-03-07T11:31:19.222Z,6.57
2018-03-07T11:33:50.067Z,7.93
2018-03-07T11:36:20.896Z,6.53
2018-03-07T11:38:51.711Z,7.63
2018-03-07T11:41:22.585Z,7.17
2018-03-07T11:43:53.481Z,7.87
2018-03-07T11:46:24.318Z,5.43
2018-03-07T11:48:55.176Z,6.37
2018-03-07T11:51:26.009Z,5.90
2018-03-07T11:53:56.848Z,5.67
2018-03-07T11:56:27.711Z,6.17
2018-03-07T11:58:58.527Z,5.70
2018-03-07T12:01:29.360Z,5.10
2018-03-07T12:04:00.202Z,5.73
2018-03-07T12:06:31.161Z,5.50
2018-03-07T12:09:02.078Z,5.50
2018-03-07T12:11:32.947Z,6.30
2018-03-07T12:14:03.846Z,5.27
2018-03-07T12:16:34.719Z,7.03
2018-03-07T12:19:05.595Z,9.23
2018-03-07T12:21:36.473Z,8.43
2018-03-07T12:24:07.311Z,7.73
2018-03-07T12:26:38.143Z,8.10
2018-03-07T12:29:08.995Z,7.00
2018-03-07T12:31:39.917Z,6.53
2018-03-07T12:34:10.749Z,7.97
2018-03-07T12:36:41.585Z,7.83
2018-03-07T12:39:12.425Z,8.00
2018-03-07T12:41:43.272Z,7.17
2018-03-07T12:44:14.131Z,9.87
2018-03-07T12:46:45.998Z,9.07
2018-03-07T12:49:16.858Z,9.82
2018-03-07T12:51:47.687Z,8.60
2018-03-07T12:54:18.486Z,7.70
2018-03-07T12:56:49.307Z,7.63
2018-03-07T12:59:20.142Z,8.60
2018-03-07T13:01:50.941Z,7.00
2018-03-07T13:04:21.809Z,8.70
2018-03-07T13:06:52.717Z,8.07
2018-03-07T13:09:23.483Z,8.97
2018-03-07T13:11:54.306Z,7.93
2018-03-07T13:14:25.120Z,7.67
2018-03-07T13:16:55.959Z,7.47
2018-03-07T13:19:26.809Z,7.00
2018-03-07T13:21:57.659Z,8.30
2018-03-07T13:24:28.504Z,7.53
2018-03-07T13:26:59.409Z,8.73
2018-03-07T13:29:30.260Z,5.77
2018-03-07T13:32:01.113Z,5.50
2018-03-07T13:34:31.941Z,5.10
2018-03-07T13:37:02.782Z,5.03
2018-03-07T13:39:33.634Z,5.17
2018-03-07T13:42:04.513Z,3.30
2018-03-07T13:44:35.365Z,2.90
2018-03-07T13:47:06.199Z,3.43
2018-03-07T13:49:36.977Z,2.40
2018-03-07T13:52:07.806Z,2.30
2018-03-07T13:54:38.680Z,2.10
2018-03-07T13:57:09.513Z,2.47
2018-03-07T13:59:40.397Z,2.00
2018-03-07T14:02:11.332Z,2.23
2018-03-07T14:04:42.163Z,2.60
2018-03-07T14:07:12.970Z,2.43
2018-03-07T14:09:43.780Z,2.33
2018-03-07T14:12:14.598Z,2.73
2018-03-07T14:14:45.440Z,2.90
2018-03-07T14:17:17.336Z,2.50
2018-03-07T14:19:48.194Z,2.67
2018-03-07T14:22:19.059Z,2.20
2018-03-07T14:24:49.906Z,3.73
2018-03-07T14:27:20.705Z,1.83
2018-03-07T14:29:51.538Z,2.00
2018-03-07T14:32:22.328Z,1.50
2018-03-07T14:34:53.194Z,1.77
2018-03-07T14:37:24.035Z,2.43
2018-03-07T14:39:54.884Z,1.47
2018-03-07T14:42:25.674Z,2.10
2018-03-07T14:44:56.557Z,5.90
2018-03-07T14:47:27.368Z,2.80
2018-03-07T14:49:58.212Z,2.83
2018-03-07T14:52:29.044Z,2.47
2018-03-07T14:54:59.878Z,1.83
2018-03-07T14:57:30.719Z,3.63
2018-03-07T15:00:01.566Z,2.40
2018-03-07T15:02:32.409Z,2.30
2018-03-07T15:05:03.287Z,2.20
2018-03-07T15:07:34.147Z,3.70
2018-03-07T15:10:05.044Z,2.30
2018-03-07T15:12:35.904Z,2.07
2018-03-07T15:15:06.780Z,2.20
2018-03-07T15:17:37.632Z,2.47
2018-03-07T15:20:08.516Z,2.43
2018-03-07T15:22:39.362Z,2.63
2018-03-07T15:25:10.183Z,2.40
2018-03-07T15:27:41.002Z,2.90
2018-03-07T15:30:12.423Z,3.43
2018-03-07T15:32:43.250Z,2.50
2018-03-07T15:35:14.178Z,3.00
2018-03-07T15:37:45.067Z,2.20
2018-03-07T15:40:15.889Z,3.07
2018-03-07T15:42:46.763Z,2.23
2018-03-07T15:45:17.606Z,1.70
2018-03-07T15:47:48.431Z,2.70
2018-03-07T15:50:19.269Z,2.30
2018-03-07T15:52:50.098Z,2.53
2018-03-07T15:55:20.950Z,1.50
2018-03-07T15:57:51.803Z,2.27
2018-03-07T16:00:22.684Z,1.83
2018-03-07T16:02:53.526Z,3.50
2018-03-07T16:05:24.381Z,1.70
2018-03-07T16:07:55.222Z,2.60
2018-03-07T16:10:26.112Z,3.70
2018-03-07T16:12:56.966Z,3.80
2018-03-07T16:15:27.848Z,2.37
2018-03-07T16:17:59.693Z,1.40
2018-03-07T16:20:30.531Z,2.03
2018-03-07T16:23:01.399Z,1.43
2018-03-07T16:25:32.274Z,1.53
2018-03-07T16:28:03.138Z,1.33
2018-03-07T16:30:34.077Z,3.70
2018-03-07T16:33:04.992Z,1.47
2018-03-07T16:35:36.962Z,1.50
2018-03-07T16:38:07.823Z,2.45
2018-03-07T16:40:38.662Z,2.17
2018-03-07T16:43:10.592Z,1.90
2018-03-07T16:45:41.443Z,4.20
2018-03-07T16:48:12.341Z,2.10
2018-03-07T16:50:44.214Z,4.50
2018-03-07T16:53:15.058Z,3.12
2018-03-07T16:55:45.929Z,2.63
2018-03-07T16:58:16.760Z,3.70
2018-03-07T17:00:47.598Z,2.50
2018-03-07T17:03:18.413Z,2.23
2018-03-07T17:05:49.266Z,1.73
2018-03-07T17:08:20.046Z,3.43
2018-03-07T17:10:50.949Z,2.13
2018-03-07T17:13:21.768Z,3.20
2018-03-07T17:15:53.283Z,8.60
2018-03-07T17:18:24.217Z,4.30
2018-03-07T17:20:55.129Z,3.33
2018-03-07T17:23:25.979Z,4.13
2018-03-07T17:25:56.908Z,12.60
2018-03-07T17:28:27.742Z,5.80
2018-03-07T17:30:58.740Z,4.73
2018-03-07T17:33:29.583Z,6.30
2018-03-07T17:36:01.256Z,6.93
2018-03-07T17:38:32.083Z,25.73
2018-03-07T17:41:02.993Z,12.47
2018-03-07T17:43:33.852Z,5.63
2018-03-07T17:46:04.743Z,2.50
2018-03-07T17:48:35.642Z,3.73
2018-03-07T17:51:06.526Z,2.50
2018-03-07T17:53:37.380Z,2.80
2018-03-07T17:56:08.309Z,5.53
2018-03-07T17:58:39.115Z,4.13
2018-03-07T18:01:10.070Z,3.10
2018-03-07T18:03:40.930Z,1.67
2018-03-07T18:06:11.893Z,1.87
2018-03-07T18:08:42.743Z,1.77
2018-03-07T18:11:13.647Z,4.37
2018-03-07T18:13:44.503Z,4.03
2018-03-07T18:16:15.395Z,2.80
2018-03-07T18:18:46.236Z,1.80
2018-03-07T18:21:19.199Z,2.00
2018-03-07T18:23:50.045Z,2.30
2018-03-07T18:26:20.910Z,2.13
2018-03-07T18:28:51.723Z,3.60
2018-03-07T18:31:22.613Z,4.27
2018-03-07T18:33:53.492Z,3.40
2018-03-07T18:36:24.323Z,5.33
2018-03-07T18:38:55.168Z,1.97
2018-03-07T18:41:27.111Z,2.10
2018-03-07T18:43:57.947Z,4.78
2018-03-07T18:46:28.767Z,4.97
2018-03-07T18:48:59.628Z,3.00
2018-03-07T18:51:30.486Z,1.93
2018-03-07T18:54:01.318Z,7.07
2018-03-07T18:56:32.228Z,13.90
2018-03-07T18:59:03.072Z,15.03
2018-03-07T19:01:33.930Z,20.73
2018-03-07T19:04:04.777Z,19.40
2018-03-07T19:06:36.369Z,7.43
2018-03-07T19:09:07.228Z,5.47
2018-03-07T19:11:39.117Z,3.47
2018-03-07T19:14:10.004Z,5.75
2018-03-07T19:16:40.861Z,3.50
2018-03-07T19:19:11.705Z,3.83
2018-03-07T19:21:42.539Z,4.33
2018-03-07T19:24:13.404Z,1.80
2018-03-07T19:26:44.257Z,3.70
2018-03-07T19:29:15.105Z,4.17
2018-03-07T19:31:45.999Z,2.30
2018-03-07T19:34:16.878Z,3.97
2018-03-07T19:36:47.723Z,2.50
2018-03-07T19:39:18.602Z,3.70
2018-03-07T19:41:49.492Z,2.40
2018-03-07T19:44:21.370Z,3.90
2018-03-07T19:46:52.259Z,3.22
2018-03-07T19:49:23.075Z,3.50
2018-03-07T19:51:53.881Z,3.33
2018-03-07T19:54:24.693Z,3.37
2018-03-07T19:56:55.538Z,3.17
2018-03-07T19:59:26.405Z,4.90
2018-03-07T20:01:57.262Z,3.47
2018-03-07T20:04:28.079Z,4.60
2018-03-07T20:06:58.900Z,3.30
2018-03-07T20:09:29.717Z,2.77
2018-03-07T20:12:00.609Z,2.60
2018-03-07T20:14:31.438Z,2.57
2018-03-07T20:17:03.393Z,3.33
2018-03-07T20:19:34.225Z,2.55
2018-03-07T20:22:05.082Z,3.33
2018-03-07T20:24:35.972Z,3.93
2018-03-07T20:27:06.846Z,3.27
2018-03-07T20:29:37.681Z,3.53
2018-03-07T20:32:08.657Z,3.60
2018-03-07T20:34:39.517Z,3.87
2018-03-07T20:37:10.437Z,2.90
2018-03-07T20:39:41.337Z,2.50
2018-03-07T20:42:12.282Z,4.33
2018-03-07T20:44:43.683Z,4.03
2018-03-07T20:47:14.582Z,3.45
2018-03-07T20:49:45.500Z,6.03
2018-03-07T20:52:16.409Z,4.03
2018-03-07T20:54:47.268Z,5.20
2018-03-07T20:57:18.352Z,3.30
2018-03-07T20:59:49.261Z,5.12
2018-03-07T21:02:20.146Z,3.50
2018-03-07T21:04:51.133Z,3.57
2018-03-07T21:07:22.008Z,3.47
2018-03-07T21:09:52.862Z,2.90
2018-03-07T21:12:23.758Z,3.60
2018-03-07T21:14:54.696Z,3.33
2018-03-07T21:17:25.637Z,2.87
2018-03-07T21:19:56.526Z,3.40
2018-03-07T21:22:29.446Z,3.60
2018-03-07T21:25:00.335Z,2.20
2018-03-07T21:27:31.231Z,3.13
2018-03-07T21:30:02.091Z,3.67
2018-03-07T21:32:32.990Z,5.83
2018-03-07T21:35:03.969Z,2.80
2018-03-07T21:37:34.871Z,3.90
2018-03-07T21:40:05.777Z,2.47
2018-03-07T21:42:36.698Z,2.40
2018-03-07T21:45:07.587Z,2.47
2018-03-07T21:47:38.439Z,4.73
2018-03-07T21:50:09.297Z,2.43
2018-03-07T21:52:40.163Z,2.27
2018-03-07T21:55:11.002Z,3.17
2018-03-07T21:57:41.924Z,4.60
2018-03-07T22:00:12.804Z,3.23
2018-03-07T22:02:43.741Z,2.93
2018-03-07T22:05:14.598Z,3.10
2018-03-07T22:07:45.493Z,2.33
2018-03-07T22:10:16.388Z,2.60
2018-03-07T22:12:47.309Z,2.67
2018-03-07T22:15:18.242Z,2.40
2018-03-07T22:17:49.113Z,5.70
2018-03-07T22:20:20.013Z,3.90
2018-03-07T22:22:50.878Z,3.50
2018-03-07T22:25:21.792Z,1.97
2018-03-07T22:27:52.729Z,1.93
2018-03-07T22:30:23.615Z,3.70
2018-03-07T22:32:54.513Z,2.37
2018-03-07T22:35:25.376Z,2.73
2018-03-07T22:37:56.206Z,5.03
2018-03-07T22:40:27.060Z,2.47
2018-03-07T22:42:58.971Z,2.13
2018-03-07T22:45:29.864Z,3.53
2018-03-07T22:48:00.700Z,2.80
2018-03-07T22:50:31.591Z,2.00
2018-03-07T22:53:02.449Z,1.70
2018-03-07T22:55:33.343Z,2.23
2018-03-07T22:58:04.191Z,1.97
2018-03-07T23:00:41.096Z,1.73
2018-03-07T23:03:11.945Z,2.25
2018-03-07T23:05:42.846Z,5.13
2018-03-07T23:08:13.742Z,2.13
2018-03-07T23:10:44.644Z,2.67
2018-03-07T23:13:15.494Z,4.27
2018-03-07T23:15:46.335Z,2.30
2018-03-07T23:18:17.202Z,4.03
2018-03-07T23:20:48.085Z,2.53
2018-03-07T23:23:18.944Z,3.07
2018-03-07T23:25:49.842Z,2.50
2018-03-07T23:28:20.729Z,3.00
2018-03-07T23:30:51.584Z,3.13
2018-03-07T23:33:22.458Z,3.80
2018-03-07T23:35:53.322Z,3.50
2018-03-07T23:38:24.194Z,2.37
2018-03-07T23:40:55.068Z,2.80
2018-03-07T23:43:25.912Z,3.57
2018-03-07T23:45:56.752Z,2.67
2018-03-07T23:48:27.638Z,2.40
2018-03-07T23:50:58.542Z,2.73
2018-03-07T23:53:29.443Z,2.40
2018-03-07T23:56:00.292Z,3.67
2018-03-07T23:58:31.155Z,2.53
